< < Back
Terminal Aerodrome Forecast


Current Version              Previous Versions:   1  2  3  4  5  6  7  8  9  

Terminal Aerodrome Forecast

827
FTUS42 KGSP 010100 AAA
TAFAND
TAF AMD
KAND 010116Z 0101/0124 06007KT 5SM SHRA BR OVC060
     FM010300 05009KT 5SM SHRA BR BKN017 OVC050
     FM010700 04007KT 4SM -SHRA BR OVC010
     FM010900 04006KT 3SM -SHRA BR VCTS OVC009CB
     FM011400 06006KT 4SM -SHRA OVC008
     FM011600 08007KT 6SM -SHRA BKN017
     FM012100 06007KT P6SM -SHRA VCTS OVC050CB=



Latest METAR

215
SAUS70 KWBC 010600 RRX
MTRAND
METAR KAND 010556Z AUTO 04010KT 9SM -RA FEW005 OVC046 19/18 A3010 RMK
AO2 SLP185 P0020 60091 T01890183 10194 20183 58010


USA.gov is the U.S. government's official web portal to all federal, state and local government web resources and services.